Time;durP1;ratioP1;P1;durP2;ratioP2;P2;SDS_P1;SDS_P2;PMS_P1;PMS_P2;Temp;Humidity;BMP_temperature;BMP_pressure;BME280_temperature;BME280_humidity;BME280_pressure;Samples;Min_cycle;Max_cycle;Signal;HPM_P1;HPM_P2
2023/06/05 00:02:37;;;;;;;7.20;4.10;;;;;;;9.45;100.00;102483.28;5017404;28;20143;-74
2023/06/05 00:05:21;;;;;;;7.03;4.13;;;;;;;9.49;100.00;102485.84;5018713;28;20104;-75
2023/06/05 00:08:05;;;;;;;7.53;4.30;;;;;;;9.55;100.00;102489.31;5016366;28;20076;-74
2023/06/05 00:10:49;;;;;;;7.43;4.07;;;;;;;9.59;100.00;102491.88;5017696;28;20079;-77
2023/06/05 00:13:33;;;;;;;7.63;3.95;;;;;;;9.60;100.00;102490.97;5001474;28;20981;-76
2023/06/05 00:16:18;;;;;;;5.88;3.45;;;;;;;9.64;100.00;102492.69;5017994;28;20076;-76
2023/06/05 00:19:02;;;;;;;5.60;3.75;;;;;;;9.69;100.00;102492.63;5018324;28;20819;-76
2023/06/05 00:21:46;;;;;;;8.95;4.25;;;;;;;9.72;100.00;102483.75;5018358;28;20096;-76
2023/06/05 00:24:30;;;;;;;8.27;3.97;;;;;;;9.76;100.00;102488.13;5017763;28;20052;-73
2023/06/05 00:27:15;;;;;;;6.60;3.88;;;;;;;9.82;100.00;102481.84;5017337;28;20057;-76
2023/06/05 00:29:59;;;;;;;7.95;4.10;;;;;;;9.85;100.00;102482.69;5019008;28;20160;-75
2023/06/05 00:32:43;;;;;;;8.30;3.55;;;;;;;9.88;100.00;102479.09;5016577;28;20424;-76
2023/06/05 00:35:27;;;;;;;6.95;3.85;;;;;;;9.91;100.00;102484.34;5017268;28;20793;-75
2023/06/05 00:38:11;;;;;;;8.73;3.88;;;;;;;9.96;100.00;102484.28;5017481;28;20091;-76
2023/06/05 00:40:55;;;;;;;5.38;3.55;;;;;;;10.01;100.00;102480.66;5016805;28;20127;-76
2023/06/05 00:43:40;;;;;;;6.65;3.90;;;;;;;10.07;100.00;102470.88;5006648;28;20040;-76
2023/06/05 00:46:24;;;;;;;7.43;3.80;;;;;;;10.11;100.00;102473.44;5020904;28;20865;-76
2023/06/05 00:49:08;;;;;;;6.95;3.80;;;;;;;10.16;100.00;102479.53;5006745;28;20087;-76
2023/06/05 00:51:51;;;;;;;6.80;3.60;;;;;;;10.17;100.00;102468.03;5020078;28;20044;-76
2023/06/05 00:54:36;;;;;;;7.10;3.72;;;;;;;10.21;100.00;102478.56;5019753;28;20530;-74
2023/06/05 00:57:20;;;;;;;6.03;3.50;;;;;;;10.24;100.00;102476.72;5020399;28;20357;-76
2023/06/05 01:00:07;;;;;;;6.07;3.47;;;;;;;10.27;100.00;102473.16;5020413;28;20052;-76
2023/06/05 01:02:56;;;;;;;5.10;3.30;;;;;;;10.30;100.00;102478.41;5021016;28;20076;-74
2023/06/05 01:05:43;;;;;;;7.63;3.65;;;;;;;10.32;100.00;102476.59;5022625;28;20044;-76
2023/06/05 01:08:28;;;;;;;6.45;3.83;;;;;;;10.36;100.00;102480.06;5021079;28;20144;-74
2023/06/05 01:11:51;;;;;;;6.20;3.40;;;;;;;10.37;100.00;102474.75;5021171;28;20051;-77
2023/06/05 01:14:36;;;;;;;5.78;3.35;;;;;;;10.36;100.00;102467.72;4978648;28;20108;-76
2023/06/05 01:17:20;;;;;;;6.50;3.60;;;;;;;10.36;100.00;102465.06;5000555;28;20445;-74
2023/06/05 01:20:08;;;;;;;6.68;3.72;;;;;;;10.37;100.00;102466.78;5020578;28;20547;-75
2023/06/05 01:22:52;;;;;;;9.65;3.95;;;;;;;10.39;100.00;102467.63;5020069;28;20103;-76
2023/06/05 01:25:36;;;;;;;5.72;3.47;;;;;;;10.40;100.00;102463.22;5019236;28;20056;-73
2023/06/05 01:28:23;;;;;;;6.40;3.42;;;;;;;10.40;100.00;102456.13;4991617;28;20044;-76
2023/06/05 01:31:15;;;;;;;5.68;3.13;;;;;;;10.41;100.00;102454.38;5005350;28;20151;-76
2023/06/05 01:34:07;;;;;;;6.47;3.30;;;;;;;10.41;100.00;102455.22;5018778;28;20566;-73
2023/06/05 01:36:52;;;;;;;6.80;3.55;;;;;;;10.42;100.00;102456.13;5005653;28;20068;-76
2023/06/05 01:39:37;;;;;;;5.70;3.47;;;;;;;10.44;100.00;102460.50;5019689;28;20136;-74
2023/06/05 01:42:22;;;;;;;5.85;3.45;;;;;;;10.46;100.00;102450.75;5006781;28;20203;-74
2023/06/05 01:45:08;;;;;;;6.18;3.03;;;;;;;10.47;100.00;102449.00;5020168;28;20099;-75
2023/06/05 01:47:53;;;;;;;5.82;3.45;;;;;;;10.52;100.00;102451.56;5005949;28;20052;-76
2023/06/05 01:50:37;;;;;;;5.78;3.05;;;;;;;10.51;100.00;102453.31;5018847;28;20048;-75
2023/06/05 01:53:22;;;;;;;5.20;2.88;;;;;;;10.51;100.00;102445.38;5003508;28;20151;-76
2023/06/05 01:56:08;;;;;;;4.90;2.75;;;;;;;10.53;100.00;102442.69;5019782;28;20052;-75
2023/06/05 01:58:53;;;;;;;4.70;2.78;;;;;;;10.51;100.00;102447.16;5003029;28;20140;-75
2023/06/05 02:01:37;;;;;;;4.50;2.83;;;;;;;10.50;100.00;102437.47;5020074;28;20487;-76
2023/06/05 02:04:22;;;;;;;4.40;2.45;;;;;;;10.49;100.00;102441.88;5019368;28;20582;-76
2023/06/05 02:07:07;;;;;;;4.82;2.60;;;;;;;10.51;100.00;102441.88;5019320;28;20043;-76
2023/06/05 02:09:51;;;;;;;4.70;2.65;;;;;;;10.51;100.00;102441.88;5018041;28;20562;-75
2023/06/05 02:12:37;;;;;;;3.30;2.30;;;;;;;10.49;100.00;102436.59;5018135;28;20578;-77
2023/06/05 02:15:22;;;;;;;3.65;2.60;;;;;;;10.50;100.00;102442.78;5019903;28;20052;-76
2023/06/05 02:18:07;;;;;;;3.45;1.92;;;;;;;10.48;100.00;102437.50;5019424;28;20151;-74
2023/06/05 02:20:56;;;;;;;4.25;2.10;;;;;;;10.48;100.00;102444.56;5019047;28;20111;-75
2023/06/05 02:23:40;;;;;;;4.32;2.20;;;;;;;10.48;100.00;102440.16;5020125;28;20257;-76
2023/06/05 02:26:25;;;;;;;4.25;2.22;;;;;;;10.50;100.00;102437.47;5021944;28;20088;-76
2023/06/05 02:29:09;;;;;;;3.05;1.92;;;;;;;10.49;100.00;102426.00;5019459;28;20157;-74
2023/06/05 02:31:54;;;;;;;3.03;1.98;;;;;;;10.50;100.00;102438.34;5018439;28;20823;-76
2023/06/05 02:34:38;;;;;;;3.78;2.47;;;;;;;10.51;100.00;102437.41;5008267;28;20496;-76
2023/06/05 02:37:26;;;;;;;3.33;2.40;;;;;;;10.51;100.00;102437.41;5019413;28;20052;-76
2023/06/05 02:40:14;;;;;;;3.50;2.13;;;;;;;10.49;100.00;102441.88;5019228;28;20048;-76
2023/06/05 02:42:58;;;;;;;3.20;2.15;;;;;;;10.45;100.00;102443.72;5005063;28;20131;-76
2023/06/05 02:45:42;;;;;;;3.40;2.40;;;;;;;10.47;100.00;102435.75;5020145;28;20072;-76
2023/06/05 02:48:26;;;;;;;3.40;2.30;;;;;;;10.49;100.00;102436.59;5018358;28;20056;-74
2023/06/05 02:51:10;;;;;;;3.20;2.03;;;;;;;10.51;100.00;102436.56;5004717;28;20044;-76
2023/06/05 02:53:55;;;;;;;3.53;2.15;;;;;;;10.51;100.00;102433.91;5018234;28;22094;-76
2023/06/05 02:56:38;;;;;;;3.38;2.20;;;;;;;10.52;100.00;102440.97;5020395;28;20048;-76
2023/06/05 02:59:24;;;;;;;3.20;2.08;;;;;;;10.51;100.00;102441.88;5018767;28;20060;-75
2023/06/05 03:02:09;;;;;;;4.35;2.53;;;;;;;10.49;100.00;102431.28;5019501;28;20060;-75
2023/06/05 03:04:55;;;;;;;5.88;3.17;;;;;;;10.49;100.00;102431.28;5004875;28;20197;-74
2023/06/05 03:07:40;;;;;;;5.88;2.92;;;;;;;10.48;100.00;102434.84;5019768;28;20523;-75
2023/06/05 03:10:24;;;;;;;5.05;3.22;;;;;;;10.48;100.00;102437.50;5017602;28;20044;-76
2023/06/05 03:13:08;;;;;;;8.45;3.70;;;;;;;10.49;100.00;102433.06;5005319;28;20424;-75
2023/06/05 03:15:53;;;;;;;7.15;3.70;;;;;;;10.48;100.00;102433.97;5019473;28;20112;-74
2023/06/05 03:18:37;;;;;;;5.45;3.70;;;;;;;10.47;100.00;102427.81;4994533;28;20049;-75
2023/06/05 03:21:21;;;;;;;6.22;3.92;;;;;;;10.47;100.00;102430.47;5020518;28;20433;-74
2023/06/05 03:24:12;;;;;;;7.95;4.32;;;;;;;10.47;100.00;102425.16;5023375;28;20095;-74
2023/06/05 03:26:56;;;;;;;7.32;4.40;;;;;;;10.43;100.00;102426.13;5026197;28;20065;-76
2023/06/05 03:29:41;;;;;;;7.75;4.95;;;;;;;10.41;100.00;102420.81;5018223;28;20044;-75
2023/06/05 03:32:25;;;;;;;8.93;5.28;;;;;;;10.43;100.00;102416.41;5020495;28;20064;-74
2023/06/05 03:35:09;;;;;;;8.35;4.90;;;;;;;10.47;100.00;102422.50;5004266;28;20385;-75
2023/06/05 03:37:53;;;;;;;8.68;4.82;;;;;;;10.51;100.00;102418.03;5019024;28;20515;-75
2023/06/05 03:40:39;;;;;;;8.88;4.75;;;;;;;10.53;100.00;102424.16;5000787;28;20683;-75
2023/06/05 03:43:24;;;;;;;9.10;5.50;;;;;;;10.54;100.00;102423.25;4999386;28;20040;-74
2023/06/05 03:46:10;;;;;;;8.70;5.15;;;;;;;10.55;100.00;102425.00;4984999;28;20685;-76
2023/06/05 03:48:58;;;;;;;7.38;4.68;;;;;;;10.58;100.00;102415.22;5000691;28;20053;-76
2023/06/05 03:51:43;;;;;;;7.88;4.70;;;;;;;10.57;100.00;102423.22;5001315;28;20104;-76
2023/06/05 03:54:28;;;;;;;8.60;4.63;;;;;;;10.57;100.00;102420.56;4998617;28;20599;-76
2023/06/05 03:57:14;;;;;;;7.10;4.63;;;;;;;10.56;100.00;102403.78;4999963;28;20041;-76
2023/06/05 03:59:58;;;;;;;9.00;4.53;;;;;;;10.58;100.00;102417.00;4999050;28;20555;-76
2023/06/05 04:02:42;;;;;;;8.18;4.90;;;;;;;10.58;100.00;102409.06;4997348;28;20112;-75
2023/06/05 04:05:26;;;;;;;8.55;4.97;;;;;;;10.58;100.00;102414.34;4991127;28;20087;-75
2023/06/05 04:08:11;;;;;;;8.48;5.10;;;;;;;10.58;100.00;102417.00;4992124;28;20052;-75
2023/06/05 04:10:55;;;;;;;8.23;5.13;;;;;;;10.60;100.00;102415.19;4994026;28;20057;-75
2023/06/05 04:13:39;;;;;;;8.93;4.95;;;;;;;10.62;100.00;102420.47;4993451;28;20053;-76
2023/06/05 04:16:23;;;;;;;8.32;4.43;;;;;;;10.66;100.00;102408.88;4983728;28;20808;-76
2023/06/05 04:19:09;;;;;;;7.65;4.70;;;;;;;10.68;100.00;102415.03;4997052;28;20041;-74
2023/06/05 04:21:53;;;;;;;7.32;4.20;;;;;;;10.70;100.00;102419.41;4983705;28;20053;-75
2023/06/05 04:24:39;;;;;;;7.50;4.32;;;;;;;10.72;100.00;102425.53;4997372;28;20096;-75
2023/06/05 04:27:28;;;;;;;6.25;4.30;;;;;;;10.78;100.00;102427.16;4998341;28;20049;-76
2023/06/05 04:30:13;;;;;;;6.97;4.28;;;;;;;10.81;100.00;102426.25;4998631;28;20045;-74
2023/06/05 04:32:57;;;;;;;5.75;3.90;;;;;;;10.81;100.00;102424.47;4998151;28;20107;-75
2023/06/05 04:35:41;;;;;;;6.75;4.18;;;;;;;10.85;100.00;102427.94;4983521;28;20037;-74
2023/06/05 04:38:25;;;;;;;6.88;4.15;;;;;;;10.84;100.00;102431.50;4998409;28;20057;-75
2023/06/05 04:41:10;;;;;;;6.35;4.20;;;;;;;10.86;100.00;102429.66;4998020;28;20052;-74
2023/06/05 04:43:57;;;;;;;6.07;3.60;;;;;;;10.88;100.00;102425.19;4997492;28;20120;-75
2023/06/05 04:46:43;;;;;;;7.95;4.05;;;;;;;10.90;100.00;102425.19;4997643;28;20040;-74
2023/06/05 04:49:28;;;;;;;4.88;3.28;;;;;;;10.89;100.00;102429.59;4997564;28;20132;-76
2023/06/05 04:52:12;;;;;;;5.80;3.13;;;;;;;10.87;100.00;102431.41;4997487;28;20112;-75
2023/06/05 04:55:02;;;;;;;4.53;2.95;;;;;;;10.89;100.00;102426.94;4997198;28;20057;-75
2023/06/05 04:57:48;;;;;;;4.18;2.60;;;;;;;10.89;100.00;102436.69;4983671;28;20040;-74
2023/06/05 05:00:32;;;;;;;3.63;2.40;;;;;;;10.92;100.00;102426.00;4995735;28;20108;-75
2023/06/05 05:03:17;;;;;;;3.38;2.28;;;;;;;10.97;100.00;102430.31;4997547;28;20076;-74
2023/06/05 05:06:01;;;;;;;3.47;2.20;;;;;;;11.00;100.00;102434.66;4982616;28;20048;-75
2023/06/05 05:08:47;;;;;;;2.75;2.00;;;;;;;11.02;100.00;102434.63;4995436;28;20129;-74
2023/06/05 05:11:32;;;;;;;2.88;2.28;;;;;;;11.02;100.00;102429.31;4996158;28;20076;-75
2023/06/05 05:14:17;;;;;;;4.68;2.38;;;;;;;11.00;100.00;102430.25;4981816;28;20048;-75
2023/06/05 05:17:02;;;;;;;3.80;2.22;;;;;;;11.06;100.00;102434.53;4996509;28;20133;-75
2023/06/05 05:19:46;;;;;;;2.90;1.80;;;;;;;11.13;100.00;102436.13;4996209;28;20112;-75
2023/06/05 05:22:30;;;;;;;3.00;1.92;;;;;;;11.18;100.00;102436.06;4996958;28;20077;-76
2023/06/05 05:25:15;;;;;;;3.22;2.10;;;;;;;11.19;100.00;102437.78;4974360;28;20049;-76
2023/06/05 05:27:59;;;;;;;2.85;1.80;;;;;;;11.25;100.00;102421.75;4994970;28;20164;-75
2023/06/05 05:30:43;;;;;;;3.15;2.20;;;;;;;11.36;100.00;102428.56;4996049;28;22008;-75
2023/06/05 05:33:28;;;;;;;2.47;1.65;;;;;;;11.44;100.00;102425.75;4996085;28;20531;-75
2023/06/05 05:36:13;;;;;;;2.65;2.00;;;;;;;11.45;100.00;102424.81;4981273;28;20044;-75
2023/06/05 05:38:58;;;;;;;1.98;1.50;;;;;;;11.46;100.00;102424.78;4999879;28;20092;-74
2023/06/05 05:41:42;;;;;;;2.22;1.90;;;;;;;11.50;100.00;102422.94;4996048;28;20056;-74
2023/06/05 05:44:26;;;;;;;2.65;1.75;;;;;;;11.57;100.00;102426.31;4994851;28;20057;-74
2023/06/05 05:47:11;;;;;;;3.17;1.73;;;;;;;11.62;100.00;102425.31;4981456;28;20108;-74
2023/06/05 05:49:55;;;;;;;1.88;1.70;;;;;;;11.63;100.00;102428.81;4981566;28;20540;-75
2023/06/05 05:52:39;;;;;;;2.28;1.42;;;;;;;11.70;100.00;102425.09;4996523;28;20393;-75
2023/06/05 05:55:23;;;;;;;2.10;1.80;;;;;;;11.79;100.00;102432.84;4994972;28;20076;-75
2023/06/05 05:58:07;;;;;;;2.33;1.55;;;;;;;11.80;100.00;102429.28;4981908;28;20069;-75
2023/06/05 06:00:52;;;;;;;2.38;1.63;;;;;;;11.86;100.00;102430.88;4994265;28;20116;-76
2023/06/05 06:03:37;;;;;;;3.28;1.50;;;;;;;11.91;100.00;102433.41;4994833;28;21392;-75
2023/06/05 06:06:24;;;;;;;1.98;1.77;;;;;;;11.98;100.00;102436.78;4980209;28;20052;-75
2023/06/05 06:09:13;;;;;;;2.30;1.70;;;;;;;11.99;100.00;102442.03;4995732;28;20041;-75
2023/06/05 06:11:58;;;;;;;3.45;1.83;;;;;;;12.04;100.00;102442.84;4994607;28;20141;-76
2023/06/05 06:14:42;;;;;;;2.63;1.88;;;;;;;12.12;100.00;102442.66;4994369;28;20056;-75
2023/06/05 06:17:32;;;;;;;2.75;1.90;;;;;;;12.20;100.00;102442.44;4980716;28;20108;-76
2023/06/05 06:20:16;;;;;;;3.10;1.90;;;;;;;12.26;100.00;102444.06;4995950;28;20589;-76
2023/06/05 06:23:00;;;;;;;1.73;1.50;;;;;;;12.31;100.00;102440.34;4981513;28;20513;-76
2023/06/05 06:25:44;;;;;;;2.00;1.63;;;;;;;12.32;100.00;102446.56;4996796;28;20617;-75
2023/06/05 06:28:28;;;;;;;1.70;1.60;;;;;;;12.37;100.00;102444.66;4995710;28;20052;-75
2023/06/05 06:31:12;;;;;;;3.75;2.28;;;;;;;12.41;100.00;102443.63;4995582;28;20104;-75
2023/06/05 06:33:56;;;;;;;3.05;2.13;;;;;;;12.41;100.00;102435.66;4995152;28;20796;-75
2023/06/05 06:36:41;;;;;;;3.65;2.10;;;;;;;12.42;100.00;102436.53;4994086;28;20041;-75
2023/06/05 06:39:25;;;;;;;2.30;2.00;;;;;;;12.48;100.00;102436.38;4995070;28;20101;-75
2023/06/05 06:42:10;;;;;;;3.80;2.25;;;;;;;12.55;100.00;102437.94;4994207;28;20053;-75
2023/06/05 06:44:55;;;;;;;2.88;2.38;;;;;;;12.62;100.00;102439.50;4994604;28;20674;-75
2023/06/05 06:47:40;;;;;;;4.05;2.60;;;;;;;12.66;100.00;102439.41;4995766;28;20037;-75
2023/06/05 06:50:24;;;;;;;3.45;2.30;;;;;;;12.72;100.00;102437.47;4995052;28;20061;-74
2023/06/05 06:53:08;;;;;;;2.63;2.08;;;;;;;12.73;100.00;102440.97;4994940;28;20084;-75
2023/06/05 06:55:52;;;;;;;6.18;2.30;;;;;;;12.75;100.00;102439.16;4995630;28;20056;-75
2023/06/05 06:58:36;;;;;;;2.63;2.30;;;;;;;12.72;100.00;102444.53;4994502;28;20081;-74
2023/06/05 07:01:20;;;;;;;2.63;2.10;;;;;;;12.83;100.00;102447.78;4995123;28;20057;-75
2023/06/05 07:04:04;;;;;;;3.47;2.00;;;;;;;12.93;100.00;102442.16;4995470;28;20121;-75
2023/06/05 07:06:48;;;;;;;2.42;1.77;;;;;;;13.08;100.00;102446.16;4995551;28;20627;-75
2023/06/05 07:09:33;;;;;;;3.58;2.08;;;;;;;13.15;100.00;102456.56;4994024;28;20061;-75
2023/06/05 07:12:19;;;;;;;4.20;2.60;;;;;;;13.17;100.00;102448.53;4995213;28;20119;-75
2023/06/05 07:15:03;;;;;;;4.32;2.42;;;;;;;13.21;100.00;102446.63;4993960;28;20044;-75
2023/06/05 07:17:47;;;;;;;4.05;2.47;;;;;;;13.32;100.00;102455.16;4994825;28;20260;-75
2023/06/05 07:20:31;;;;;;;2.90;2.30;;;;;;;13.46;100.00;102449.44;4980279;28;20080;-75
2023/06/05 07:23:17;;;;;;;3.65;2.88;;;;;;;13.60;100.00;102446.31;4996697;28;20583;-75
2023/06/05 07:26:02;;;;;;;3.28;2.50;;;;;;;13.67;100.00;102450.53;4995191;28;20041;-76
2023/06/05 07:28:49;;;;;;;3.72;2.40;;;;;;;13.70;100.00;102450.44;4994649;28;20632;-75
2023/06/05 07:31:33;;;;;;;4.68;2.85;;;;;;;13.78;100.00;102442.19;4965866;28;20052;-75
2023/06/05 07:34:18;;;;;;;3.17;2.30;;;;;;;13.85;100.00;102443.72;4994429;28;22025;-75
2023/06/05 07:37:03;;;;;;;5.82;2.97;;;;;;;13.81;100.00;102436.78;4982266;28;20045;-74
2023/06/05 07:39:50;;;;;;;5.22;2.65;;;;;;;13.84;100.00;102443.78;5003293;28;20060;-74
2023/06/05 07:42:34;;;;;;;4.43;3.05;;;;;;;13.94;100.00;102444.34;4999243;28;20052;-74
2023/06/05 07:45:18;;;;;;;4.60;3.00;;;;;;;14.03;100.00;102446.69;5014136;28;20056;-75
2023/06/05 07:48:02;;;;;;;4.30;2.65;;;;;;;14.13;100.00;102453.41;5014355;28;20507;-75
2023/06/05 07:50:46;;;;;;;5.05;3.05;;;;;;;14.06;100.00;102445.72;5014287;28;20140;-76
2023/06/05 07:53:30;;;;;;;3.13;2.65;;;;;;;14.02;100.00;102444.94;5013389;28;20052;-75
2023/06/05 07:56:16;;;;;;;5.38;3.15;;;;;;;14.01;100.00;102451.19;5002950;28;20049;-73
2023/06/05 07:59:02;;;;;;;3.75;2.80;;;;;;;14.01;100.00;102440.53;5018553;28;20048;-75
2023/06/05 08:01:49;;;;;;;3.97;2.65;;;;;;;14.02;100.00;102442.28;5018331;28;20065;-75
2023/06/05 08:04:33;;;;;;;3.33;2.67;;;;;;;14.02;100.00;102449.38;5018455;28;20178;-74
2023/06/05 08:07:17;;;;;;;4.30;2.40;;;;;;;14.07;99.64;102455.44;5000577;28;20041;-74
2023/06/05 08:10:01;;;;;;;3.67;2.67;;;;;;;14.07;99.85;102461.63;5017942;28;20032;-75
2023/06/05 08:12:45;;;;;;;4.50;2.53;;;;;;;13.98;100.00;102453.94;5017977;28;20168;-74
2023/06/05 08:15:29;;;;;;;3.80;2.42;;;;;;;14.06;98.83;102451.88;5018480;28;20523;-75
2023/06/05 08:18:15;;;;;;;4.82;2.80;;;;;;;14.07;99.30;102452.78;5018423;28;20047;-74
2023/06/05 08:20:59;;;;;;;3.78;2.70;;;;;;;14.07;99.49;102453.66;5018304;28;20049;-75
2023/06/05 08:23:45;;;;;;;5.00;3.10;;;;;;;14.13;99.44;102460.53;5004883;28;20127;-75
2023/06/05 08:26:29;;;;;;;3.78;2.88;;;;;;;14.21;99.10;102465.59;5019365;28;20040;-74
2023/06/05 08:29:13;;;;;;;4.07;2.80;;;;;;;14.49;97.40;102465.47;5017673;28;20068;-75
2023/06/05 08:32:01;;;;;;;3.30;2.60;;;;;;;14.70;97.89;102459.44;5015614;28;20129;-77
2023/06/05 08:34:45;;;;;;;3.30;2.67;;;;;;;14.83;95.94;102458.06;4984735;28;20059;-78
2023/06/05 08:37:30;;;;;;;3.83;2.92;;;;;;;14.98;95.22;102456.59;5013638;28;20587;-76
2023/06/05 08:40:15;;;;;;;4.88;2.80;;;;;;;14.99;96.23;102458.34;5002005;28;20087;-74
2023/06/05 08:43:02;;;;;;;4.72;2.63;;;;;;;15.16;95.61;102460.34;5002105;28;20159;-74
2023/06/05 08:45:51;;;;;;;4.75;2.85;;;;;;;15.15;94.48;102447.09;5016633;28;20164;-74
2023/06/05 08:48:45;;;;;;;4.15;2.60;;;;;;;15.08;91.27;102446.44;5016924;28;20048;-75
2023/06/05 08:51:29;;;;;;;3.47;2.53;;;;;;;15.06;93.24;102454.53;5016168;28;20566;-75
2023/06/05 08:54:14;;;;;;;3.55;2.58;;;;;;;15.06;94.04;102446.53;5000794;28;20067;-74
2023/06/05 08:56:59;;;;;;;3.85;2.85;;;;;;;15.15;93.64;102457.75;5014693;28;20088;-75
2023/06/05 08:59:44;;;;;;;5.30;2.58;;;;;;;15.25;93.83;102448.44;5002387;28;20052;-75
2023/06/05 09:02:28;;;;;;;3.22;2.45;;;;;;;15.42;93.90;102445.09;5017583;28;20123;-75
2023/06/05 09:05:14;;;;;;;5.35;2.80;;;;;;;15.74;94.44;102445.56;5017529;28;20045;-75
2023/06/05 09:07:59;;;;;;;4.38;3.15;;;;;;;16.06;94.60;102444.31;5016625;28;20052;-75
2023/06/05 09:10:43;;;;;;;4.47;2.83;;;;;;;16.34;94.33;102438.59;5015757;28;20418;-74
2023/06/05 09:13:44;;;;;;;6.13;3.03;;;;;;;16.36;91.72;102435.88;5000711;28;20104;-76
2023/06/05 09:16:37;;;;;;;3.15;2.65;;;;;;;16.56;90.71;102433.16;5000646;28;20072;-75
2023/06/05 09:19:25;;;;;;;3.90;2.90;;;;;;;16.70;92.40;102432.53;5015727;28;20092;-74
2023/06/05 09:22:10;;;;;;;7.15;3.45;;;;;;;16.78;91.17;102433.97;5001306;28;20068;-75
2023/06/05 09:24:56;;;;;;;3.83;2.97;;;;;;;16.94;89.25;102426.97;5015130;28;20928;-76
2023/06/05 09:27:41;;;;;;;4.57;2.95;;;;;;;16.95;89.73;102423.34;5009750;28;20539;-78
2023/06/05 09:30:25;;;;;;;3.88;3.03;;;;;;;17.19;90.39;102436.53;5012006;28;20495;-76
2023/06/05 09:33:09;;;;;;;3.65;3.05;;;;;;;17.30;84.01;102433.31;5013975;28;20607;-75
2023/06/05 09:36:05;;;;;;;7.00;3.22;;;;;;;17.35;84.22;102425.06;4986847;28;20079;-75
2023/06/05 09:38:50;;;;;;;3.65;3.13;;;;;;;17.18;85.33;102420.53;5012719;28;20115;-80
2023/06/05 09:41:44;;;;;;;7.38;3.30;;;;;;;16.92;82.85;102428.84;4993190;28;20128;-74
2023/06/05 09:44:29;;;;;;;4.65;3.33;;;;;;;16.84;86.36;102428.34;4996306;28;20670;-76
2023/06/05 09:47:17;;;;;;;4.80;3.45;;;;;;;16.86;85.69;102423.78;4981228;28;20567;-74
2023/06/05 09:50:03;;;;;;;6.97;3.42;;;;;;;17.10;86.52;102429.81;4980519;28;20075;-76
2023/06/05 09:52:47;;;;;;;5.35;3.10;;;;;;;17.22;83.96;102431.00;4996097;28;20104;-76
2023/06/05 09:55:32;;;;;;;4.20;3.00;;;;;;;17.17;84.53;102432.19;4995159;28;20124;-75
2023/06/05 09:58:16;;;;;;;5.32;3.30;;;;;;;17.09;83.74;102430.75;4995806;28;20508;-76
2023/06/05 10:01:03;;;;;;;4.57;3.20;;;;;;;17.02;84.36;102428.44;4980574;28;20133;-75
2023/06/05 10:03:52;;;;;;;4.18;3.13;;;;;;;17.18;84.78;102428.56;4979468;28;20157;-75
2023/06/05 10:06:38;;;;;;;5.75;3.70;;;;;;;17.22;83.30;102420.31;4984021;28;20041;-75
2023/06/05 10:09:24;;;;;;;4.10;3.00;;;;;;;17.34;84.61;102421.50;4977456;28;20095;-75
2023/06/05 10:12:11;;;;;;;4.25;3.20;;;;;;;17.43;83.47;102428.22;4992335;28;20041;-77
2023/06/05 10:14:56;;;;;;;4.10;3.10;;;;;;;17.14;82.04;102429.66;4977228;28;20057;-77
2023/06/05 10:17:41;;;;;;;4.65;3.08;;;;;;;17.00;83.24;102416.91;4978050;28;20147;-77
2023/06/05 10:20:25;;;;;;;6.43;3.13;;;;;;;16.93;82.57;102414.53;4978330;28;20125;-78
2023/06/05 10:23:09;;;;;;;5.88;3.45;;;;;;;17.04;83.38;102421.19;4978411;28;20041;-79
2023/06/05 10:25:54;;;;;;;4.03;3.15;;;;;;;16.98;82.55;102416.97;4992389;28;20056;-75
2023/06/05 10:29:07;;;;;;;4.00;3.03;;;;;;;16.96;82.51;102414.38;4992519;28;20048;-77
2023/06/05 12:11:48;;;;;;;4.25;3.20;;;;;;;17.56;80.66;102369.59;6246366;22;1364997;-77
2023/06/05 12:14:33;;;;;;;5.30;3.42;;;;;;;17.71;80.69;102383.13;6307251;22;20098;-77
2023/06/05 12:17:18;;;;;;;5.00;3.25;;;;;;;17.71;79.95;102375.94;6278143;22;20157;-79
2023/06/05 12:20:04;;;;;;;3.63;3.03;;;;;;;17.61;79.23;102377.38;6292562;22;20156;-77
2023/06/05 12:22:48;;;;;;;4.35;3.17;;;;;;;17.72;80.10;102367.00;6299744;22;20041;-77
2023/06/05 12:25:33;;;;;;;4.97;2.90;;;;;;;17.73;80.67;102366.03;6320459;22;20026;-77
2023/06/05 12:28:20;;;;;;;5.93;3.35;;;;;;;17.80;79.44;102363.06;6321345;22;20033;-78
2023/06/05 12:31:04;;;;;;;5.15;3.15;;;;;;;17.81;79.57;102360.28;6318210;22;20106;-76
2023/06/05 12:33:48;;;;;;;4.00;2.90;;;;;;;17.83;79.56;102361.06;6317344;22;20072;-77
2023/06/05 12:36:42;;;;;;;4.63;3.13;;;;;;;17.76;75.87;102360.50;6287241;22;20025;-77
2023/06/05 12:39:29;;;;;;;4.90;3.47;;;;;;;17.76;80.98;102360.50;6317978;22;20075;-76
2023/06/05 12:42:13;;;;;;;5.90;3.70;;;;;;;17.86;81.07;102355.53;6320016;22;20026;-77
2023/06/05 12:44:57;;;;;;;4.75;3.33;;;;;;;17.75;80.31;102358.78;6319586;22;20097;-78
2023/06/05 12:47:42;;;;;;;4.80;3.33;;;;;;;17.92;80.40;102357.03;6323150;22;20099;-77
2023/06/05 12:50:28;;;;;;;4.82;2.95;;;;;;;18.11;80.20;102358.75;6317288;22;20099;-76
2023/06/05 12:53:12;;;;;;;6.05;3.67;;;;;;;18.07;79.00;102357.22;6308455;22;20052;-79
2023/06/05 12:55:57;;;;;;;5.82;3.88;;;;;;;18.02;80.43;102358.28;6319409;22;20583;-79
2023/06/05 12:58:40;;;;;;;5.63;3.28;;;;;;;18.10;79.75;102357.03;6318132;22;20018;-77
2023/06/05 13:01:25;;;;;;;4.32;3.00;;;;;;;18.11;80.74;102353.41;6257606;22;20018;-78
2023/06/05 13:04:10;;;;;;;5.57;3.17;;;;;;;18.19;80.40;102348.50;6288862;22;20080;-76
2023/06/05 13:06:54;;;;;;;5.30;3.22;;;;;;;18.25;78.73;102342.78;6257309;22;20123;-78
2023/06/05 13:09:38;;;;;;;7.05;3.63;;;;;;;18.21;78.94;102343.94;6288327;22;20027;-78
2023/06/05 13:12:22;;;;;;;5.50;3.33;;;;;;;18.23;79.92;102342.03;6313170;22;20054;-77
2023/06/05 13:15:07;;;;;;;6.97;3.35;;;;;;;18.07;78.80;102333.94;6288108;22;20775;-78
2023/06/05 13:17:51;;;;;;;4.90;3.53;;;;;;;17.99;78.28;102337.03;6303130;22;20053;-77
2023/06/05 13:20:35;;;;;;;6.45;3.60;;;;;;;17.93;79.41;102323.94;6292535;22;20049;-76
2023/06/05 13:23:21;;;;;;;5.07;3.53;;;;;;;17.76;78.61;102323.03;6312418;22;20018;-77
2023/06/05 13:26:05;;;;;;;5.50;3.58;;;;;;;17.72;79.20;102331.31;6292156;22;20426;-77
2023/06/05 13:28:49;;;;;;;7.13;3.78;;;;;;;17.81;79.31;102324.59;6257543;22;20458;-76
2023/06/05 13:31:34;;;;;;;6.43;4.68;;;;;;;17.77;79.56;102321.22;6314732;22;20033;-76
2023/06/05 13:34:18;;;;;;;7.47;4.90;;;;;;;17.76;79.33;102316.81;6257959;22;20343;-76
2023/06/05 13:37:03;;;;;;;8.30;4.32;;;;;;;17.76;79.38;102316.81;6289180;22;20030;-76
2023/06/05 13:39:47;;;;;;;8.63;4.75;;;;;;;17.85;79.70;102320.78;6280979;22;20035;-77
2023/06/05 13:42:32;;;;;;;6.95;4.65;;;;;;;17.75;77.95;102323.97;6313223;22;20029;-77
2023/06/05 13:45:16;;;;;;;6.15;4.30;;;;;;;17.64;78.12;102323.66;6291767;22;20017;-80
2023/06/05 13:48:00;;;;;;;6.78;4.22;;;;;;;17.53;79.29;102320.69;6280984;22;20074;-75
2023/06/05 13:50:44;;;;;;;6.55;4.30;;;;;;;17.74;79.00;102322.25;6309097;22;20101;-74
2023/06/05 13:53:34;;;;;;;5.95;3.90;;;;;;;17.77;78.65;102324.75;6286691;22;20030;-75
2023/06/05 13:56:18;;;;;;;7.45;4.50;;;;;;;17.89;79.33;102323.25;6252760;22;20425;-74
2023/06/05 13:59:02;;;;;;;6.35;4.50;;;;;;;17.92;77.99;102322.19;6272451;22;20077;-75
2023/06/05 14:01:46;;;;;;;8.75;5.35;;;;;;;17.83;78.74;102320.03;6309245;22;20018;-73
2023/06/05 14:04:30;;;;;;;7.28;4.68;;;;;;;17.65;78.03;102320.03;6308491;22;20520;-74
2023/06/05 14:07:14;;;;;;;6.85;4.53;;;;;;;17.57;78.83;102316.88;6287415;22;20025;-74
2023/06/05 14:09:58;;;;;;;6.45;4.32;;;;;;;17.63;79.70;102321.94;6302863;22;20599;-74
2023/06/05 14:12:43;;;;;;;7.72;4.20;;;;;;;17.86;79.92;102328.75;6286070;22;20092;-77
2023/06/05 14:15:27;;;;;;;9.25;5.03;;;;;;;17.94;78.08;102317.66;6279575;22;20076;-79
2023/06/05 14:18:12;;;;;;;8.35;4.63;;;;;;;17.90;78.27;102313.38;6291046;22;20025;-80
2023/06/05 14:20:57;;;;;;;7.43;5.10;;;;;;;17.87;77.77;102318.91;6314622;22;20331;-80
2023/06/05 14:23:42;;;;;;;6.32;4.53;;;;;;;17.90;78.04;102308.91;6308066;22;20098;-75